createdAt,value
2019-04-21T00:02:01.581Z,99.07
2019-04-21T00:04:43.268Z,103.60
2019-04-21T00:07:21.780Z,97.90
2019-04-21T00:09:53.344Z,98.67
2019-04-21T00:12:18.195Z,98.83
2019-04-21T00:14:39.576Z,94.47
2019-04-21T00:17:07.236Z,96.40
2019-04-21T00:19:49.661Z,99.43
2019-04-21T00:22:33.135Z,96.80
2019-04-21T00:25:05.293Z,99.00
2019-04-21T00:27:33.825Z,96.40
2019-04-21T00:30:04.568Z,102.83
2019-04-21T00:32:27.917Z,93.83
2019-04-21T00:34:51.183Z,97.87
2019-04-21T00:37:29.621Z,94.30
2019-04-21T00:40:06.312Z,95.17
2019-04-21T00:42:34.335Z,95.80
2019-04-21T00:45:01.878Z,102.83
2019-04-21T00:47:34.169Z,96.33
2019-04-21T00:50:08.113Z,94.00
2019-04-21T00:53:05.712Z,99.03
2019-04-21T00:57:44.929Z,97.37
2019-04-21T01:00:11.909Z,108.00
2019-04-21T01:05:16.695Z,97.03
2019-04-21T01:07:42.259Z,99.20
2019-04-21T01:10:06.665Z,97.37
2019-04-21T01:12:41.950Z,102.20
2019-04-21T01:15:18.505Z,103.73
2019-04-21T01:17:44.833Z,112.80
2019-04-21T01:20:03.539Z,108.50
2019-04-21T01:22:18.387Z,99.90
2019-04-21T01:24:53.569Z,102.73
2019-04-21T01:27:33.567Z,110.83
2019-04-21T01:30:05.606Z,117.43
2019-04-21T01:32:37.468Z,112.20
2019-04-21T01:35:06.176Z,100.33
2019-04-21T01:37:43.800Z,94.50
2019-04-21T01:40:08.518Z,91.90
2019-04-21T01:42:33.352Z,92.20
2019-04-21T01:45:05.528Z,98.77
2019-04-21T01:47:31.018Z,103.03
2019-04-21T01:49:56.775Z,95.10
2019-04-21T01:52:40.842Z,102.13
2019-04-21T01:55:25.094Z,103.97
2019-04-21T01:58:03.996Z,107.43
2019-04-21T02:00:37.875Z,101.87
2019-04-21T02:03:28.607Z,99.97
2019-04-21T02:05:44.375Z,104.50
2019-04-21T02:08:11.218Z,102.87
2019-04-21T02:10:49.809Z,99.20
2019-04-21T02:13:12.099Z,99.43
2019-04-21T02:15:52.821Z,104.27
2019-04-21T02:18:11.931Z,96.30
2019-04-21T02:20:32.766Z,100.73
2019-04-21T02:23:29.322Z,96.43
2019-04-21T02:25:44.335Z,94.97
2019-04-21T02:28:24.026Z,92.40
2019-04-21T02:31:00.769Z,93.63
2019-04-21T02:40:57.948Z,95.10
2019-04-21T02:48:19.338Z,90.30
2019-04-21T02:50:45.198Z,88.70
2019-04-21T02:53:48.281Z,89.17
2019-04-21T02:55:44.162Z,89.17
2019-04-21T02:58:41.653Z,88.50
2019-04-21T03:01:23.582Z,89.07
2019-04-21T03:04:00.072Z,105.73
2019-04-21T03:06:59.954Z,105.23
2019-04-21T03:09:25.693Z,106.40
2019-04-21T03:12:03.021Z,104.93
2019-04-21T03:14:28.235Z,107.13
2019-04-21T03:16:42.980Z,109.33
2019-04-21T03:19:28.541Z,108.37
2019-04-21T03:21:48.639Z,106.80
2019-04-21T03:24:24.731Z,111.97
2019-04-21T03:29:20.314Z,106.33
2019-04-21T03:39:11.883Z,110.03
2019-04-21T03:41:48.339Z,110.80
2019-04-21T03:44:16.594Z,107.57
2019-04-21T03:46:47.369Z,103.90
2019-04-21T03:49:19.220Z,97.53
2019-04-21T03:51:48.677Z,105.07
2019-04-21T03:54:07.901Z,104.47
2019-04-21T03:57:11.389Z,102.17
2019-04-21T03:59:09.995Z,98.27
2019-04-21T04:05:23.765Z,98.60
2019-04-21T04:10:13.577Z,98.10
2019-04-21T04:15:26.587Z,106.17
2019-04-21T04:17:41.204Z,96.43
2019-04-21T04:20:24.237Z,94.70
2019-04-21T04:22:52.588Z,93.80
2019-04-21T04:25:21.126Z,92.10
2019-04-21T04:27:59.449Z,96.70
2019-04-21T04:35:21.627Z,96.57
2019-04-21T04:37:51.088Z,94.60
2019-04-21T04:42:57.039Z,97.87
2019-04-21T04:45:30.680Z,93.37
2019-04-21T04:48:00.258Z,93.73
2019-04-21T04:50:37.370Z,92.80
2019-04-21T04:52:56.586Z,97.27
2019-04-21T04:55:25.847Z,98.57
2019-04-21T04:57:59.303Z,100.57
2019-04-21T05:00:35.050Z,97.83
2019-04-21T05:05:38.130Z,97.40
2019-04-21T05:07:57.896Z,96.63
2019-04-21T05:10:34.891Z,96.47
2019-04-21T05:12:51.096Z,96.23
2019-04-21T05:15:16.208Z,94.77
2019-04-21T05:17:50.895Z,93.57
2019-04-21T05:22:47.241Z,94.53
2019-04-21T05:25:08.573Z,96.17
2019-04-21T05:27:39.890Z,96.77
2019-04-21T05:30:22.117Z,98.83
2019-04-21T05:33:09.720Z,98.73
2019-04-21T05:35:56.064Z,91.10
2019-04-21T05:38:41.818Z,95.53
2019-04-21T05:41:06.765Z,90.07
2019-04-21T05:43:48.692Z,92.03
2019-04-21T05:46:18.401Z,97.87
2019-04-21T05:48:52.218Z,94.30
2019-04-21T05:51:20.571Z,93.60
2019-04-21T05:54:02.219Z,95.70
2019-04-21T05:56:22.979Z,95.30
2019-04-21T05:58:48.021Z,98.73
2019-04-21T06:01:30.104Z,100.27
2019-04-21T06:06:27.573Z,100.93
2019-04-21T06:08:48.040Z,98.23
2019-04-21T06:11:28.979Z,97.70
2019-04-21T06:13:55.004Z,96.27
2019-04-21T06:16:21.512Z,93.77
2019-04-21T06:18:53.075Z,93.77
2019-04-21T06:21:21.992Z,90.33
2019-04-21T06:23:51.445Z,95.70
2019-04-21T06:28:50.474Z,97.00
2019-04-21T06:31:40.841Z,92.67
2019-04-21T06:33:55.185Z,96.73
2019-04-21T06:36:47.111Z,91.10
2019-04-21T06:39:15.641Z,93.37
2019-04-21T06:42:01.289Z,92.70
2019-04-21T06:44:16.867Z,92.80
2019-04-21T06:46:44.898Z,91.37
2019-04-21T06:49:20.402Z,90.77
2019-04-21T06:51:45.299Z,90.57
2019-04-21T06:54:14.484Z,95.03
2019-04-21T06:56:51.266Z,92.07
2019-04-21T06:59:09.457Z,92.60
2019-04-21T07:02:13.413Z,90.90
2019-04-21T07:11:36.761Z,90.03
2019-04-21T07:14:25.944Z,89.10
2019-04-21T07:16:44.715Z,88.97
2019-04-21T07:21:43.371Z,89.70
2019-04-21T07:24:14.510Z,88.50
2019-04-21T07:26:42.720Z,85.57
2019-04-21T07:29:17.058Z,90.07
2019-04-21T07:31:46.979Z,84.47
2019-04-21T07:34:22.951Z,88.30
2019-04-21T07:36:49.009Z,87.83
2019-04-21T07:39:05.980Z,89.10
2019-04-21T07:41:34.037Z,87.90
2019-04-21T07:44:00.251Z,83.50
2019-04-21T07:46:30.025Z,83.20
2019-04-21T07:49:12.838Z,83.33
2019-04-21T07:51:52.114Z,83.57
2019-04-21T07:54:23.837Z,84.23
2019-04-21T07:56:34.840Z,84.33
2019-04-21T07:59:25.629Z,79.77
2019-04-21T08:01:50.818Z,83.73
2019-04-21T08:04:37.951Z,85.07
2019-04-21T08:09:19.295Z,83.40
2019-04-21T08:11:44.344Z,81.60
2019-04-21T08:14:19.487Z,81.23
2019-04-21T08:16:51.083Z,83.23
2019-04-21T08:19:21.889Z,91.43
2019-04-21T08:21:53.053Z,83.67
2019-04-21T08:24:14.730Z,84.20
2019-04-21T08:26:57.573Z,86.93
2019-04-21T08:32:00.728Z,82.27
2019-04-21T08:34:21.506Z,86.87
2019-04-21T08:36:41.827Z,81.40
2019-04-21T08:39:14.999Z,86.27
2019-04-21T08:41:45.186Z,80.37
2019-04-21T08:44:10.603Z,77.20
2019-04-21T08:46:48.739Z,78.17
2019-04-21T08:49:17.339Z,84.40
2019-04-21T08:52:00.753Z,77.40
2019-04-21T08:54:15.151Z,82.00
2019-04-21T08:57:15.269Z,80.30
2019-04-21T08:59:59.833Z,82.77
2019-04-21T09:02:35.811Z,80.47
2019-04-21T09:04:59.133Z,78.87
2019-04-21T09:07:34.424Z,83.70
2019-04-21T09:09:57.460Z,84.17
2019-04-21T09:12:29.496Z,81.70
2019-04-21T09:15:01.746Z,82.47
2019-04-21T09:17:25.172Z,80.77
2019-04-21T09:20:07.780Z,82.83
2019-04-21T09:22:30.819Z,80.23
2019-04-21T09:25:00.103Z,83.53
2019-04-21T09:27:29.346Z,81.87
2019-04-21T09:29:47.900Z,82.83
2019-04-21T09:32:14.619Z,81.00
2019-04-21T09:34:43.560Z,81.97
2019-04-21T09:37:19.091Z,76.97
2019-04-21T09:39:40.949Z,83.40
2019-04-21T09:42:08.861Z,92.23
2019-04-21T09:44:40.436Z,79.97
2019-04-21T09:47:07.444Z,81.27
2019-04-21T09:49:38.051Z,80.83
2019-04-21T09:52:12.947Z,80.67
2019-04-21T09:54:45.964Z,76.63
2019-04-21T09:57:10.581Z,79.80
2019-04-21T09:59:40.328Z,77.97
2019-04-21T10:02:11.633Z,76.00
2019-04-21T10:04:35.662Z,74.87
2019-04-21T10:07:04.569Z,77.73
2019-04-21T10:09:33.351Z,77.17
2019-04-21T10:12:03.024Z,78.63
2019-04-21T10:14:31.120Z,74.67
2019-04-21T10:17:17.290Z,79.67
2019-04-21T10:19:46.358Z,76.37
2019-04-21T10:22:14.952Z,76.53
2019-04-21T10:24:42.884Z,76.97
2019-04-21T10:27:12.901Z,76.70
2019-04-21T10:29:43.129Z,80.87
2019-04-21T10:32:11.329Z,79.40
2019-04-21T10:34:39.385Z,74.80
2019-04-21T10:37:07.349Z,75.00
2019-04-21T10:39:35.718Z,79.13
2019-04-21T10:42:03.910Z,74.90
2019-04-21T10:44:31.974Z,77.97
2019-04-21T10:47:00.639Z,80.00
2019-04-21T10:49:28.781Z,76.17
2019-04-21T10:51:57.230Z,76.03
2019-04-21T10:54:26.195Z,76.97
2019-04-21T10:56:55.005Z,74.47
2019-04-21T10:59:24.951Z,79.60
2019-04-21T11:01:52.801Z,77.80
2019-04-21T11:04:29.680Z,75.57
2019-04-21T11:06:59.431Z,76.43
2019-04-21T11:09:24.125Z,78.93
2019-04-21T11:11:53.603Z,75.87
2019-04-21T11:14:23.025Z,75.80
2019-04-21T11:16:52.948Z,79.77
2019-04-21T11:19:22.040Z,79.50
2019-04-21T11:21:50.054Z,75.50
2019-04-21T11:24:18.276Z,76.80
2019-04-21T11:26:47.635Z,78.27
2019-04-21T11:29:17.063Z,75.63
2019-04-21T11:31:45.308Z,77.37
2019-04-21T11:34:13.546Z,75.00
2019-04-21T11:36:41.662Z,74.20
2019-04-21T11:39:30.819Z,78.37
2019-04-21T11:41:49.854Z,74.53
2019-04-21T11:44:18.617Z,75.30
2019-04-21T11:46:48.738Z,75.20
2019-04-21T11:49:17.958Z,75.43
2019-04-21T11:51:46.973Z,77.20
2019-04-21T11:54:15.184Z,76.30
2019-04-21T11:56:43.251Z,79.40
2019-04-21T11:59:12.108Z,76.27
2019-04-21T12:01:41.320Z,78.30
2019-04-21T12:04:09.808Z,76.10
2019-04-21T12:06:43.613Z,81.37
2019-04-21T12:09:10.113Z,79.13
2019-04-21T12:11:39.022Z,77.80
2019-04-21T12:14:08.033Z,77.40
2019-04-21T12:16:37.038Z,78.70
2019-04-21T12:19:05.259Z,77.20
2019-04-21T12:21:48.176Z,79.97
2019-04-21T12:24:02.958Z,78.30
2019-04-21T12:26:31.811Z,76.47
2019-04-21T12:29:01.735Z,78.07
2019-04-21T12:31:54.745Z,76.30
2019-04-21T12:34:23.797Z,74.27
2019-04-21T12:36:52.837Z,76.93
2019-04-21T12:39:20.906Z,78.37
2019-04-21T12:41:49.015Z,76.30
2019-04-21T12:44:18.364Z,75.80
2019-04-21T12:46:47.717Z,75.57
2019-04-21T12:49:15.926Z,78.30
2019-04-21T12:51:44.115Z,79.83
2019-04-21T12:54:12.068Z,76.40
2019-04-21T12:56:41.254Z,78.50
2019-04-21T12:59:09.993Z,75.60
2019-04-21T13:01:39.017Z,72.40
2019-04-21T13:04:08.161Z,78.07
2019-04-21T13:06:37.264Z,75.90
2019-04-21T13:09:10.731Z,75.97
2019-04-21T13:11:37.312Z,79.50
2019-04-21T13:14:06.542Z,75.47
2019-04-21T13:16:34.594Z,76.57
2019-04-21T13:19:03.002Z,82.10
2019-04-21T13:21:31.986Z,76.87
2019-04-21T13:24:00.993Z,75.30
2019-04-21T13:26:37.168Z,78.17
2019-04-21T13:29:00.228Z,75.60
2019-04-21T13:31:29.929Z,74.77
2019-04-21T13:33:58.000Z,75.30
2019-04-21T13:36:25.977Z,81.40
2019-04-21T13:39:44.581Z,75.53
2019-04-21T13:41:57.138Z,80.13
2019-04-21T13:44:15.614Z,79.50
2019-04-21T13:46:45.095Z,77.57
2019-04-21T13:49:13.697Z,79.67
2019-04-21T13:51:43.621Z,77.20
2019-04-21T13:54:12.023Z,74.67
2019-04-21T13:56:42.298Z,78.27
2019-04-21T13:59:10.723Z,75.07
2019-04-21T14:01:39.534Z,77.57
2019-04-21T14:04:09.498Z,77.93
2019-04-21T14:06:38.425Z,75.53
2019-04-21T14:09:09.825Z,75.07
2019-04-21T14:11:37.778Z,74.77
2019-04-21T14:14:06.124Z,77.60
2019-04-21T14:16:34.252Z,77.20
2019-04-21T14:19:03.373Z,76.80
2019-04-21T14:21:31.516Z,83.53
2019-04-21T14:23:59.559Z,77.83
2019-04-21T14:26:27.579Z,73.70
2019-04-21T14:28:56.740Z,74.63
2019-04-21T14:31:26.253Z,77.23
2019-04-21T14:33:54.487Z,74.90
2019-04-21T14:36:23.037Z,75.20
2019-04-21T14:38:52.266Z,76.77
2019-04-21T14:41:20.383Z,75.57
2019-04-21T14:43:48.529Z,73.77
2019-04-21T14:46:26.950Z,77.73
2019-04-21T14:49:11.102Z,76.97
2019-04-21T14:51:56.863Z,75.70
2019-04-21T14:54:46.925Z,76.27
2019-04-21T14:57:15.560Z,77.00
2019-04-21T14:59:44.874Z,78.70
2019-04-21T15:02:14.056Z,80.47
2019-04-21T15:04:43.819Z,75.50
2019-04-21T15:07:12.967Z,76.10
2019-04-21T15:09:41.543Z,75.73
2019-04-21T15:12:11.812Z,75.57
2019-04-21T15:14:40.367Z,75.13
2019-04-21T15:17:09.078Z,77.27
2019-04-21T15:19:38.282Z,74.90
2019-04-21T15:22:06.622Z,75.47
2019-04-21T15:24:34.513Z,84.10
2019-04-21T15:27:03.101Z,75.67
2019-04-21T15:29:31.311Z,78.40
2019-04-21T15:31:59.210Z,77.10
2019-04-21T15:34:27.487Z,75.60
2019-04-21T15:36:55.672Z,75.17
2019-04-21T15:39:23.674Z,74.40
2019-04-21T15:41:52.521Z,78.30
2019-04-21T15:44:20.866Z,76.97
2019-04-21T15:46:50.129Z,79.87
2019-04-21T15:49:18.155Z,75.90
2019-04-21T15:51:47.256Z,75.20
2019-04-21T15:54:16.405Z,79.00
2019-04-21T15:56:49.061Z,77.80
2019-04-21T15:59:42.292Z,74.73
2019-04-21T16:02:28.593Z,79.20
2019-04-21T16:04:56.837Z,73.53
2019-04-21T16:07:24.790Z,76.73
2019-04-21T16:09:54.249Z,76.90
2019-04-21T16:12:22.322Z,74.27
2019-04-21T16:14:50.445Z,78.80
2019-04-21T16:17:19.225Z,75.57
2019-04-21T16:19:48.046Z,75.37
2019-04-21T16:22:16.784Z,75.13
2019-04-21T16:24:46.279Z,78.77
2019-04-21T16:27:15.271Z,75.37
2019-04-21T16:29:43.891Z,76.40
2019-04-21T16:32:14.613Z,78.73
2019-04-21T16:34:48.943Z,75.47
2019-04-21T16:37:11.864Z,75.20
2019-04-21T16:39:41.231Z,76.07
2019-04-21T16:42:12.060Z,75.23
2019-04-21T16:44:40.960Z,74.60
2019-04-21T16:47:09.709Z,75.03
2019-04-21T16:49:38.046Z,79.40
2019-04-21T16:52:23.925Z,73.97
2019-04-21T16:55:06.590Z,79.47
2019-04-21T16:57:41.857Z,74.50
2019-04-21T17:00:26.787Z,75.50
2019-04-21T17:02:44.139Z,73.07
2019-04-21T17:05:12.274Z,78.47
2019-04-21T17:07:40.937Z,79.33
2019-04-21T17:10:12.703Z,76.53
2019-04-21T17:12:41.705Z,77.80
2019-04-21T17:15:24.793Z,73.57
2019-04-21T17:18:00.451Z,77.93
2019-04-21T17:20:20.326Z,75.97
2019-04-21T17:22:39.553Z,79.10
2019-04-21T17:25:08.679Z,78.23
2019-04-21T17:27:36.812Z,74.43
2019-04-21T17:30:06.517Z,74.30
2019-04-21T17:32:38.790Z,75.73
2019-04-21T17:35:05.912Z,75.80
2019-04-21T17:37:34.225Z,79.07
2019-04-21T17:40:05.156Z,76.70
2019-04-21T17:42:42.183Z,76.50
2019-04-21T17:45:01.460Z,75.20
2019-04-21T17:47:42.691Z,76.23
2019-04-21T17:50:25.866Z,75.40
2019-04-21T17:53:03.247Z,75.37
2019-04-21T17:55:31.310Z,74.30
2019-04-21T17:58:11.664Z,80.37
2019-04-21T18:03:33.266Z,75.40
2019-04-21T18:05:47.482Z,74.47
2019-04-21T18:08:19.239Z,74.93
2019-04-21T18:10:43.976Z,79.17
2019-04-21T18:13:05.876Z,76.90
2019-04-21T18:15:45.641Z,74.07
2019-04-21T18:17:58.753Z,72.77
2019-04-21T18:20:30.144Z,73.37
2019-04-21T18:23:31.419Z,73.47
2019-04-21T18:25:56.220Z,75.87
2019-04-21T18:28:16.616Z,76.80
2019-04-21T18:30:52.286Z,77.27
2019-04-21T18:33:25.092Z,75.90
2019-04-21T18:36:08.534Z,75.57
2019-04-21T18:39:09.752Z,74.07
2019-04-21T18:41:30.086Z,75.90
2019-04-21T18:44:28.062Z,74.90
2019-04-21T18:47:11.848Z,74.20
2019-04-21T18:49:35.679Z,74.97
2019-04-21T18:52:19.331Z,76.47
2019-04-21T18:54:57.549Z,76.60
2019-04-21T18:57:20.519Z,76.33
2019-04-21T18:59:43.213Z,76.40
2019-04-21T19:02:11.215Z,73.07
2019-04-21T19:04:39.471Z,79.10
2019-04-21T19:07:19.957Z,76.27
2019-04-21T19:12:35.643Z,76.60
2019-04-21T19:14:56.650Z,76.47
2019-04-21T19:20:02.054Z,76.20
2019-04-21T19:22:30.772Z,75.67
2019-04-21T19:24:59.771Z,73.77
2019-04-21T19:27:36.604Z,77.73
2019-04-21T19:30:17.687Z,73.90
2019-04-21T19:32:25.291Z,75.17
2019-04-21T19:34:40.465Z,73.43
2019-04-21T19:37:11.451Z,77.37
2019-04-21T19:39:50.814Z,75.60
2019-04-21T19:42:18.556Z,76.63
2019-04-21T19:44:52.229Z,75.90
2019-04-21T19:47:29.355Z,77.93
2019-04-21T19:49:58.770Z,76.33
2019-04-21T19:52:10.952Z,74.03
2019-04-21T19:54:37.927Z,76.00
2019-04-21T19:57:02.953Z,75.80
2019-04-21T19:59:38.560Z,74.80
2019-04-21T20:02:00.769Z,74.63
2019-04-21T20:04:36.815Z,77.00
2019-04-21T20:07:10.419Z,76.00
2019-04-21T20:09:45.249Z,75.90
2019-04-21T20:12:23.850Z,80.47
2019-04-21T20:17:13.607Z,77.60
2019-04-21T20:19:29.992Z,75.87
2019-04-21T20:21:58.994Z,75.70
2019-04-21T20:24:30.245Z,75.67
2019-04-21T20:27:02.245Z,73.07
2019-04-21T20:29:44.777Z,76.83
2019-04-21T20:32:23.005Z,78.93
2019-04-21T20:34:46.350Z,76.50
2019-04-21T20:37:19.612Z,78.90
2019-04-21T20:39:28.328Z,74.77
2019-04-21T20:42:09.673Z,75.37
2019-04-21T20:44:44.744Z,76.47
2019-04-21T20:47:07.801Z,74.73
2019-04-21T20:49:35.060Z,74.67
2019-04-21T20:52:29.491Z,76.27
2019-04-21T20:54:40.792Z,75.40
2019-04-21T20:57:11.508Z,74.67
2019-04-21T20:59:31.718Z,76.83
2019-04-21T21:02:11.923Z,75.80
2019-04-21T21:04:30.858Z,76.07
2019-04-21T21:07:16.157Z,74.07
2019-04-21T21:09:41.395Z,80.30
2019-04-21T21:12:25.747Z,74.90
2019-04-21T21:14:40.719Z,81.90
2019-04-21T21:17:13.105Z,76.70
2019-04-21T21:19:42.674Z,78.27
2019-04-21T21:21:58.909Z,79.03
2019-04-21T21:24:41.896Z,76.37
2019-04-21T21:27:07.545Z,77.70
2019-04-21T21:29:42.556Z,79.27
2019-04-21T21:32:16.793Z,80.70
2019-04-21T21:34:44.016Z,77.47
2019-04-21T21:37:21.743Z,77.57
2019-04-21T21:39:50.951Z,80.67
2019-04-21T21:41:53.083Z,80.57
2019-04-21T21:44:22.819Z,79.77
2019-04-21T21:47:01.536Z,78.13
2019-04-21T21:49:35.551Z,76.53
2019-04-21T21:52:00.238Z,76.27
2019-04-21T21:54:19.857Z,79.37
2019-04-21T21:56:48.002Z,77.70
2019-04-21T21:59:21.865Z,79.30
2019-04-21T22:01:50.964Z,77.67
2019-04-21T22:04:23.812Z,78.00
2019-04-21T22:06:54.169Z,78.90
2019-04-21T22:09:14.825Z,78.30
2019-04-21T22:11:44.258Z,79.27
2019-04-21T22:14:22.965Z,80.33
2019-04-21T22:16:57.497Z,80.47
2019-04-21T22:19:32.438Z,79.50
2019-04-21T22:21:57.861Z,80.20
2019-04-21T22:24:25.419Z,80.87
2019-04-21T22:26:41.147Z,84.57
2019-04-21T22:29:09.712Z,80.20
2019-04-21T22:31:40.809Z,84.13
2019-04-21T22:34:10.941Z,78.40
2019-04-21T22:36:48.461Z,80.70
2019-04-21T22:39:28.444Z,79.70
2019-04-21T22:41:44.846Z,81.40
2019-04-21T22:44:12.001Z,79.37
2019-04-21T22:46:53.004Z,77.77
2019-04-21T22:49:12.574Z,78.83
2019-04-21T22:51:44.847Z,80.37
2019-04-21T22:54:12.795Z,82.03
2019-04-21T22:56:50.014Z,81.30
2019-04-21T22:59:15.152Z,79.60
2019-04-21T23:01:42.473Z,78.40
2019-04-21T23:04:10.037Z,81.30
2019-04-21T23:06:39.619Z,78.67
2019-04-21T23:09:08.883Z,82.30
2019-04-21T23:11:42.815Z,76.60
2019-04-21T23:14:10.282Z,81.10
2019-04-21T23:16:40.268Z,79.17
2019-04-21T23:19:25.692Z,82.10
2019-04-21T23:21:55.360Z,81.80
2019-04-21T23:24:33.010Z,79.57
2019-04-21T23:26:50.738Z,81.70
2019-04-21T23:29:25.864Z,80.03
2019-04-21T23:31:58.126Z,82.00
2019-04-21T23:34:04.551Z,81.43
2019-04-21T23:36:35.496Z,81.53
2019-04-21T23:39:06.928Z,81.50
2019-04-21T23:41:38.825Z,78.93
2019-04-21T23:44:05.869Z,79.40
2019-04-21T23:46:35.132Z,80.10
2019-04-21T23:49:15.140Z,82.03
2019-04-21T23:51:42.953Z,80.30
2019-04-21T23:54:01.621Z,80.20
2019-04-21T23:56:34.053Z,84.17
2019-04-21T23:59:04.193Z,80.43
